WetterOnline ( https://www.wetteronline.de )

Wetter aktuell Bad Driburg

Aktuelles Wetter: Bad Lippspringe (158m)

6-stündlich | Neueste Meldungen
Ortszeit Temperatur Wetter
Do, 18.08. 14:00 21.2° C bedeckt
Do, 18.08. 8:00 17.1° C Nebel
Do, 18.08. 2:00 16.5° C wolkig
Mi, 17.08. 20:00 25.8° C leicht bewölkt
Mi, 17.08. 14:00 28.0° C bedeckt
Mi, 17.08. 8:00 18.8° C bedeckt
Mi, 17.08. 2:00 16.7° C leicht bewölkt
Di, 16.08. 20:00 26.4° C fast wolkenlos
Ortszeit Temperatur Wetter
Do, 18.08. 19:00 23.4° C bewölkt
Do, 18.08. 18:50 23.4° C bewölkt
Do, 18.08. 18:40 23.4° C bedeckt
Do, 18.08. 18:30 23.5° C bewölkt
Do, 18.08. 18:20 23.5° C bewölkt
Do, 18.08. 18:10 23.5° C bedeckt
Do, 18.08. 18:00 23.6° C bewölkt
Do, 18.08. 17:30 23.6° C bewölkt
Do, 18.08. 17:00 23.4° C bewölkt
Do, 18.08. 16:30 23.5° C bedeckt
Do, 18.08. 16:00 23.8° C wolkig
Ortszeit Relative Feuchte Sichtweite
Do, 18.08. 14:00 71% 9 km
Do, 18.08. 8:00 96% 1.4 km
Do, 18.08. 2:00 92% 8 km
Mi, 17.08. 20:00 51% 60 km
Mi, 17.08. 14:00 40% >70 km
Mi, 17.08. 8:00 79% 45 km
Mi, 17.08. 2:00 84% 45 km
Di, 16.08. 20:00 47% 55 km
Ortszeit Relative Feuchte Sichtweite
Do, 18.08. 19:00 63% 30 km
Do, 18.08. 18:50 63% -
Do, 18.08. 18:40 63% -
Do, 18.08. 18:30 63% 27 km
Do, 18.08. 18:20 63% -
Do, 18.08. 18:10 62% -
Do, 18.08. 18:00 61% 25 km
Do, 18.08. 17:30 61% 25 km
Do, 18.08. 17:00 60% 27 km
Do, 18.08. 16:30 61% 21 km
Do, 18.08. 16:00 61% 22 km
Ortszeit Niederschlagsmenge Niederschlagsart
Do, 18.08. 14:00 0.0 l/m2 in 6 Std. -
Do, 18.08. 8:00 0.0 l/m2 in 12 Std. -
Do, 18.08. 2:00 0.0 l/m2 in 6 Std. -
Mi, 17.08. 20:00 0.3 l/m2 in 12 Std. Regen
Mi, 17.08. 14:00 0.0 l/m2 in 6 Std. -
Mi, 17.08. 8:00 0.0 l/m2 in 12 Std. -
Mi, 17.08. 2:00 0.0 l/m2 in 6 Std. -
Di, 16.08. 20:00 0.0 l/m2 in 12 Std. -
Ortszeit Niederschlagsmenge Niederschlagsart
Do, 18.08. 19:00 0.0 l/m2 in 1 Std. -
Do, 18.08. 18:50 keine Meldung -
Do, 18.08. 18:40 keine Meldung -
Do, 18.08. 18:30 0.0 l/m2 in 1 Std. -
Do, 18.08. 18:20 keine Meldung -
Do, 18.08. 18:10 keine Meldung -
Do, 18.08. 18:00 0.0 l/m2 in 1 Std. -
Do, 18.08. 17:30 0.0 l/m2 in 1 Std. -
Do, 18.08. 17:00 0.0 l/m2 in 1 Std. -
Do, 18.08. 16:30 0.0 l/m2 in 1 Std. -
Do, 18.08. 16:00 0.0 l/m2 in 1 Std. -
Ortszeit Stärke Spitze Richtung
km/h Bft. km/h Grad Sektor
Do, 18.08. 14:00 6 1 17 300° NW
Do, 18.08. 8:00 6 1 9 300° NW
Do, 18.08. 2:00 0 0 25 - -
Mi, 17.08. 20:00 4 1 25 310° NW
Mi, 17.08. 14:00 14 3 29 150° SO
Mi, 17.08. 8:00 4 1 11 40° NO
Mi, 17.08. 2:00 0 0 11 - -
Di, 16.08. 20:00 4 1 25 170° S
Ortszeit Stärke Spitze Richtung
km/h Bft. km/h Grad Sektor
Do, 18.08. 19:00 9 2 19 300° NW
Do, 18.08. 18:50 9 2 - 300° NW
Do, 18.08. 18:40 7 2 - 310° NW
Do, 18.08. 18:30 7 2 14 320° NW
Do, 18.08. 18:20 7 2 - 320° NW
Do, 18.08. 18:10 7 2 - 340° N
Do, 18.08. 18:00 7 2 22 350° N
Do, 18.08. 17:30 11 2 18 320° NW
Do, 18.08. 17:00 9 2 20 310° NW
Do, 18.08. 16:30 11 2 22 330° NW
Do, 18.08. 16:00 7 2 14 310° NW
Ortszeit Untergrenze Bedeckung Gattung
total tief tief mittel hoch
Do, 18.08. 14:00 570 m 8/8 8/8 - - -
Do, 18.08. 8:00 180 m 8/8 8/8 - - -
Do, 18.08. 2:00 1800 m 7/8 2/8 - - -
Mi, 17.08. 20:00 3300 m 5/8 2/8 - - -
Mi, 17.08. 14:00 3600 m 8/8 8/8 - - -
Mi, 17.08. 8:00 6000 m 8/8 8/8 - - -
Mi, 17.08. 2:00 9000 m 5/8 0/8 - - -
Di, 16.08. 20:00 10500 m 1/8 0/8 - - -
Ortszeit Bedeckungsgrad in Achtel und Wolkenuntergrenze
Do, 18.08. 19:00 5(1020m) 7(1290m) 8(4500m)
Do, 18.08. 18:50 5(1020m) 7(1290m) 8(4500m)
Do, 18.08. 18:40 8
Do, 18.08. 18:30 5(960m) 7(1230m) 8(4500m)
Do, 18.08. 18:20 5(960m) 7(1230m) 8(4500m)
Do, 18.08. 18:10 8
Do, 18.08. 18:00 7(1080m) 8(4500m) 8(6900m)
Do, 18.08. 17:30 7(1080m) 7(4500m)
Do, 18.08. 17:00 6(1020m) 8(4800m)
Do, 18.08. 16:30 8(5100m)
Do, 18.08. 16:00 2(780m) 7(5100m) 8(5700m)
Ortszeit Luftdruck NN (hPa) Tendenz (hPa in 3 Std.)
Do, 18.08. 14:00 1014 0,0
Do, 18.08. 8:00 1013 + 0,4
Do, 18.08. 2:00 1012 + 0,5
Mi, 17.08. 20:00 1009 - 0,6
Mi, 17.08. 14:00 1010 - 0,1
Mi, 17.08. 8:00 1011 + 0,5
Mi, 17.08. 2:00 1011 + 0,1
Di, 16.08. 20:00 1009 + 0,4
Ortszeit Luftdruck NN (hPa) Tendenz (hPa in 3 Std.)
Do, 18.08. 19:00 1012 - 0,4
Do, 18.08. 18:50 1012 keine Meldung
Do, 18.08. 18:40 1012 keine Meldung
Do, 18.08. 18:30 1012 - 0,6
Do, 18.08. 18:20 1012 keine Meldung
Do, 18.08. 18:10 1012 keine Meldung
Do, 18.08. 18:00 1012 - 0,6
Do, 18.08. 17:30 1012 - 0,9
Do, 18.08. 17:00 1012 - 1,1
Do, 18.08. 16:30 1012 - 1,6
Do, 18.08. 16:00 1013 - 1,2
Ortszeit Schneehöhe (cm)
Do, 18.08. 14:00 0
Do, 18.08. 8:00 0
Do, 18.08. 2:00 0
Mi, 17.08. 20:00 0
Mi, 17.08. 14:00 0
Mi, 17.08. 8:00 0
Mi, 17.08. 2:00 0
Di, 16.08. 20:00 0
Ortszeit Schneehöhe (cm)
Do, 18.08. 19:00 0
Do, 18.08. 18:50 0
Do, 18.08. 18:40 0
Do, 18.08. 18:30 0
Do, 18.08. 18:20 0
Do, 18.08. 18:10 0
Do, 18.08. 18:00 0
Do, 18.08. 17:30 0
Do, 18.08. 17:00 0
Do, 18.08. 16:30 0
Do, 18.08. 16:00 0
Link zu dieser Seite / Seite empfehlen

Das Wetter in ...